»·PEaware :: JBU35 KASE-KABQ

JBU35 :: KASE-KABQ

FLIGHT INFORMATION

Flight Status: Arrived
Operator:
JetBlue Airways
More flights by this operator :: More flights under this callsign
Pilot: Max W. (2591)
Aircraft: AIRBUS A320
(A320)
More flights by this aircraft type
Origin: KASE Aspen-Pitkin Co/Sardy
United States
Destination: KABQ Albuquerque Intl Sunport
United States
More flights between these airports :: More routes between these airports
Route: LINDZ8 LINDZ HBU DATME SNDIA3
File this flight plan on PilotEdge
Remarks: BETA AIRPLANE RUNNING OLD NAVDATA THANK YOU
Altitude:
(Current/Filed)
31,000ft
Speed:
(Current/Filed)
400kts
Departed: 02-Nov-17 02:37 PM
Arrived: 02-Nov-17 03:24 PM
Distance/Time
Traveled:
251nm/0:47
Distance/Time
To Go:
Arrived

Flight Plot

Page will automatically refresh every two minutes.

Flight plan parsing failed; only flown route is shown


Map Options




Map Legend


Flown Route
Filed Route
Departure Airport
Arrival Airport
Navaid (VOR, NDB)
Fix

Horizontal Profiles

Position Reports

Time Latitude Longitude Heading Altitude Ground
Speed
02-Nov-17 14:13 39.218550 -106.864165 248 7783ft 0kts
02-Nov-17 14:14 39.218550 -106.864165 248 7783ft 0kts
02-Nov-17 14:15 39.218550 -106.864165 248 7783ft 0kts
02-Nov-17 14:16 39.218550 -106.864165 248 7783ft 0kts
02-Nov-17 14:17 39.218550 -106.864165 248 7783ft 0kts
02-Nov-17 14:18 39.218550 -106.864165 248 7783ft 0kts
02-Nov-17 14:19 39.218550 -106.864165 248 7783ft 0kts
02-Nov-17 14:20 39.218550 -106.864164 248 7782ft 0kts
02-Nov-17 14:21 39.218550 -106.864164 248 7782ft 0kts
02-Nov-17 14:22 39.218550 -106.864164 248 7782ft 0kts
02-Nov-17 14:23 39.218550 -106.864164 248 7782ft 0kts
02-Nov-17 14:24 39.218550 -106.864164 248 7782ft 0kts
02-Nov-17 14:25 39.218550 -106.864165 248 7782ft 0kts
02-Nov-17 14:26 39.218550 -106.864165 248 7782ft 0kts
02-Nov-17 14:27 39.218550 -106.864165 248 7782ft 0kts
02-Nov-17 14:28 39.218550 -106.864165 248 7782ft 0kts
02-Nov-17 14:29 39.218550 -106.864165 248 7782ft 0kts
02-Nov-17 14:30 39.218550 -106.864165 248 7782ft 0kts
02-Nov-17 14:31 39.218550 -106.864165 248 7782ft 0kts
02-Nov-17 14:32 39.218550 -106.864165 248 7782ft 0kts
02-Nov-17 14:33 39.218550 -106.864165 248 7782ft 0kts
02-Nov-17 14:34 39.218550 -106.864165 248 7782ft 0kts
02-Nov-17 14:35 39.218550 -106.864165 248 7782ft 0kts
02-Nov-17 14:36 39.218550 -106.864165 248 7782ft 0kts
02-Nov-17 14:37 39.218550 -106.864165 248 7782ft 0kts
02-Nov-17 14:38 39.218385 -106.864423 231 7782ft 8kts
02-Nov-17 14:39 39.215372 -106.863967 157 7782ft 11kts
02-Nov-17 14:40 39.212900 -106.862775 159 7782ft 0kts
02-Nov-17 14:41 39.212470 -106.863755 339 7782ft 0kts
02-Nov-17 14:42 39.242733 -106.875773 349 8431ft 189kts
02-Nov-17 14:43 39.275341 -106.913250 282 11310ft 175kts
02-Nov-17 14:44 39.290493 -106.983488 283 12655ft 241kts
02-Nov-17 14:45 39.320506 -107.072485 301 14195ft 311kts
02-Nov-17 14:46 39.319083 -107.184640 232 15427ft 359kts
02-Nov-17 14:47 39.225444 -107.214624 155 17036ft 397kts
02-Nov-17 14:48 39.135214 -107.134060 155 19178ft 402kts
02-Nov-17 14:49 39.026454 -107.111881 175 20817ft 407kts
02-Nov-17 14:50 38.913717 -107.097609 181 22273ft 420kts
02-Nov-17 14:51 38.806044 -107.084061 181 23431ft 432kts
02-Nov-17 14:52 38.690502 -107.069532 181 24716ft 440kts
02-Nov-17 14:53 38.569083 -107.054321 181 25870ft 450kts
02-Nov-17 14:54 38.445857 -107.034875 170 26918ft 469kts
02-Nov-17 14:55 38.324106 -106.971992 163 27892ft 484kts
02-Nov-17 14:56 38.200428 -106.906397 163 28786ft 492kts
02-Nov-17 14:57 38.074730 -106.840625 163 29829ft 494kts
02-Nov-17 14:58 37.951542 -106.776061 164 30970ft 493kts
02-Nov-17 14:59 37.830262 -106.712949 164 31205ft 492kts
02-Nov-17 15:00 37.707182 -106.648928 164 31207ft 492kts
02-Nov-17 15:01 37.584523 -106.585353 164 31206ft 492kts
02-Nov-17 15:02 37.459427 -106.520780 164 31204ft 492kts
02-Nov-17 15:03 37.333921 -106.456223 162 31216ft 492kts
02-Nov-17 15:04 37.209663 -106.392576 163 31208ft 491kts
02-Nov-17 15:05 37.089574 -106.331042 164 31177ft 490kts
02-Nov-17 15:06 36.972223 -106.271589 164 31168ft 489kts
02-Nov-17 15:07 36.859853 -106.214537 164 31166ft 489kts
02-Nov-17 15:08 36.743024 -106.155497 164 31245ft 489kts
02-Nov-17 15:09 36.614984 -106.139354 201 31282ft 456kts
02-Nov-17 15:10 36.497750 -106.190122 206 31292ft 447kts
02-Nov-17 15:11 36.382875 -106.241038 206 31008ft 439kts
02-Nov-17 15:12 36.268981 -106.291413 206 28489ft 436kts
02-Nov-17 15:13 36.156786 -106.340727 205 26417ft 418kts
02-Nov-17 15:14 36.049051 -106.387565 205 24108ft 408kts
02-Nov-17 15:15 35.944599 -106.432523 205 22284ft 385kts
02-Nov-17 15:16 35.853079 -106.470754 204 21071ft 357kts
02-Nov-17 15:17 35.765340 -106.506618 204 19208ft 349kts
02-Nov-17 15:18 35.674592 -106.543597 199 17202ft 346kts
02-Nov-17 15:19 35.584475 -106.581397 198 15425ft 341kts
02-Nov-17 15:20 35.499907 -106.627034 203 14158ft 319kts
02-Nov-17 15:21 35.422661 -106.668220 201 12767ft 311kts
02-Nov-17 15:22 35.344088 -106.710312 203 11110ft 310kts
02-Nov-17 15:23 35.268703 -106.697246 120 9580ft 299kts
02-Nov-17 15:24 35.230073 -106.615136 119 9103ft 261kts
02-Nov-17 15:25 35.169649 -106.566208 152 8926ft 272kts
02-Nov-17 15:26 35.104705 -106.525440 152 7453ft 249kts
02-Nov-17 15:27 35.048883 -106.518312 236 6287ft 189kts
02-Nov-17 15:28 35.044021 -106.571939 271 5425ft 154kts
02-Nov-17 15:29 35.044503 -106.601023 285 5318ft 9kts
02-Nov-17 15:30 35.045258 -106.602914 314 5318ft 4kts
02-Nov-17 15:31 35.045775 -106.604974 272 5318ft 15kts
02-Nov-17 15:32 35.045827 -106.611571 270 5318ft 25kts
02-Nov-17 15:33 35.046929 -106.614473 342 5318ft 0kts

Navigation Log

Ident Type
Flight plan parsing failed, navigation log unavailable